Time;durP1;ratioP1;P1;durP2;ratioP2;P2;SDS_P1;SDS_P2;PMS_P1;PMS_P2;Temp;Humidity;BMP_temperature;BMP_pressure;BME280_temperature;BME280_humidity;BME280_pressure;Samples;Min_cycle;Max_cycle;Signal;HPM_P1;HPM_P2
2021/11/27 00:01:28;;;;;;;4.60;3.33;;;;;;;3.46;85.76;95573.00;5138549;27;20221;-63
2021/11/27 00:03:54;;;;;;;3.13;2.80;;;;;;;3.46;85.98;95580.00;5137324;27;20213;-63
2021/11/27 00:06:21;;;;;;;4.80;3.13;;;;;;;3.54;84.86;95578.41;5138494;27;20215;-64
2021/11/27 00:08:48;;;;;;;3.03;2.63;;;;;;;3.54;84.59;95567.16;5138061;27;20217;-64
2021/11/27 00:11:17;;;;;;;4.27;2.80;;;;;;;3.57;84.44;95567.75;5138296;27;20210;-63
2021/11/27 00:13:43;;;;;;;3.13;2.70;;;;;;;3.58;84.53;95563.31;5139073;27;20213;-64
2021/11/27 00:16:10;;;;;;;4.07;2.60;;;;;;;3.49;84.33;95567.53;5138376;27;20212;-63
2021/11/27 00:18:37;;;;;;;4.13;3.13;;;;;;;3.55;84.38;95558.38;5137952;27;20237;-63
2021/11/27 00:21:07;;;;;;;4.20;3.00;;;;;;;3.48;84.73;95563.25;5138319;27;20611;-63
2021/11/27 00:23:35;;;;;;;4.17;3.27;;;;;;;3.39;85.15;95553.59;5139237;27;20221;-63
2021/11/27 00:26:02;;;;;;;3.53;3.00;;;;;;;3.31;85.49;95555.97;5139629;27;20552;-63
2021/11/27 00:28:30;;;;;;;4.60;3.50;;;;;;;3.28;85.95;95558.84;5138225;27;20292;-63
2021/11/27 00:30:59;;;;;;;3.50;2.90;;;;;;;3.27;86.52;95565.03;5138070;27;20235;-64
2021/11/27 00:33:26;;;;;;;3.03;2.73;;;;;;;3.35;86.47;95553.94;5138890;27;20217;-63
2021/11/27 00:35:52;;;;;;;3.97;3.00;;;;;;;3.33;86.54;95551.47;5139328;27;20281;-63
2021/11/27 00:38:19;;;;;;;4.07;3.23;;;;;;;3.34;86.39;95550.50;5137770;27;20218;-63
2021/11/27 00:40:46;;;;;;;4.33;3.00;;;;;;;3.37;86.20;95552.84;5137602;27;20251;-63
2021/11/27 00:43:14;;;;;;;3.87;3.27;;;;;;;3.40;86.19;95546.56;5136698;27;20209;-64
2021/11/27 00:45:45;;;;;;;3.10;2.80;;;;;;;3.43;85.87;95539.31;5139481;27;20236;-64
2021/11/27 00:48:14;;;;;;;3.97;3.07;;;;;;;3.48;85.99;95537.16;5137680;27;20295;-63
2021/11/27 00:50:43;;;;;;;4.17;3.17;;;;;;;3.44;86.15;95543.59;5137640;27;20206;-64
2021/11/27 00:53:10;;;;;;;4.00;3.10;;;;;;;3.44;87.04;95530.53;5139024;27;20662;-64
2021/11/27 00:55:37;;;;;;;5.30;3.20;;;;;;;3.48;86.96;95524.09;5138147;27;20211;-64
2021/11/27 00:58:05;;;;;;;3.50;2.97;;;;;;;3.48;86.28;95526.72;5137515;27;20207;-63
2021/11/27 01:00:37;;;;;;;4.20;3.10;;;;;;;3.53;86.32;95524.56;5137608;27;20236;-64
2021/11/27 01:03:08;;;;;;;4.17;3.13;;;;;;;3.48;86.65;95520.69;5138836;27;20588;-63
2021/11/27 01:05:35;;;;;;;3.33;2.80;;;;;;;3.47;86.87;95522.44;5123597;27;20217;-63
2021/11/27 01:08:02;;;;;;;4.57;3.60;;;;;;;3.44;86.66;95519.25;5135651;27;20224;-63
2021/11/27 01:10:32;;;;;;;3.83;2.77;;;;;;;3.31;87.76;95508.19;5137436;27;20205;-63
2021/11/27 01:12:59;;;;;;;3.50;2.97;;;;;;;3.23;87.73;95506.19;5140162;27;20212;-63
2021/11/27 01:15:29;;;;;;;4.47;3.33;;;;;;;3.06;88.78;95500.69;5123195;27;20213;-63
2021/11/27 01:17:57;;;;;;;3.00;2.63;;;;;;;3.00;89.03;95499.41;5137059;27;20646;-63
2021/11/27 01:20:29;;;;;;;3.17;2.70;;;;;;;2.95;89.48;95501.53;5137013;27;20230;-63
2021/11/27 01:22:56;;;;;;;4.60;3.30;;;;;;;2.96;89.39;95497.16;5134514;27;20205;-63
2021/11/27 01:25:23;;;;;;;3.00;2.67;;;;;;;2.91;89.79;95500.16;5136982;27;20210;-64
2021/11/27 01:27:50;;;;;;;4.60;3.80;;;;;;;2.95;90.11;95496.31;5136780;27;20211;-63
2021/11/27 01:30:17;;;;;;;3.93;3.23;;;;;;;2.97;90.47;95491.84;5136975;27;20582;-63
2021/11/27 01:32:45;;;;;;;5.13;3.57;;;;;;;3.06;90.12;95501.50;5133985;27;20779;-63
2021/11/27 01:35:11;;;;;;;3.70;3.07;;;;;;;3.05;89.95;95492.03;5135019;27;20210;-63
2021/11/27 01:37:39;;;;;;;4.30;3.03;;;;;;;3.15;90.11;95492.09;5136971;27;20217;-64
2021/11/27 01:40:11;;;;;;;4.03;3.00;;;;;;;3.17;90.17;95493.66;5136675;27;20248;-63
2021/11/27 01:42:37;;;;;;;4.07;3.23;;;;;;;3.27;90.19;95484.13;5134249;27;20674;-63
2021/11/27 01:45:05;;;;;;;3.57;3.03;;;;;;;3.29;89.39;95484.81;5136999;27;20249;-64
2021/11/27 01:47:32;;;;;;;4.43;3.17;;;;;;;3.23;89.81;95490.53;5136594;27;20220;-63
2021/11/27 01:49:59;;;;;;;5.30;3.80;;;;;;;3.23;89.84;95494.91;5136916;27;20578;-64
2021/11/27 01:52:26;;;;;;;4.40;3.33;;;;;;;3.28;89.95;95493.59;5139500;27;20209;-64
2021/11/27 01:54:54;;;;;;;4.53;3.57;;;;;;;3.38;89.65;95494.50;5136930;27;20227;-63
2021/11/27 01:57:20;;;;;;;4.30;3.60;;;;;;;3.50;88.66;95485.66;5136956;27;20210;-64
2021/11/27 01:59:47;;;;;;;4.27;3.33;;;;;;;3.52;88.40;95485.50;5123567;27;20242;-63
2021/11/27 02:02:15;;;;;;;4.20;3.00;;;;;;;3.57;88.70;95484.19;5124421;27;20220;-64
2021/11/27 02:04:42;;;;;;;5.30;3.37;;;;;;;3.60;89.05;95470.84;5123054;28;20204;-63
2021/11/27 02:07:09;;;;;;;6.53;4.33;;;;;;;3.67;87.98;95469.38;5119289;27;20214;-63
2021/11/27 02:09:38;;;;;;;5.33;3.57;;;;;;;3.66;88.00;95467.72;5119215;27;20213;-63
2021/11/27 02:12:14;;;;;;;3.67;3.17;;;;;;;3.68;88.52;95467.63;5120171;27;20206;-64
2021/11/27 02:14:41;;;;;;;4.63;3.43;;;;;;;3.69;88.25;95449.22;5136575;27;20213;-63
2021/11/27 02:17:10;;;;;;;4.03;3.30;;;;;;;3.63;88.75;95441.06;5136277;27;20297;-63
2021/11/27 02:19:37;;;;;;;4.97;3.43;;;;;;;3.63;89.00;95447.13;5137461;27;20261;-63
2021/11/27 02:22:05;;;;;;;4.53;3.53;;;;;;;3.49;90.05;95447.44;5137892;27;20208;-64
2021/11/27 02:24:32;;;;;;;5.93;3.47;;;;;;;3.40;90.98;95445.59;5136225;27;20210;-63
2021/11/27 02:26:58;;;;;;;4.70;3.60;;;;;;;3.35;91.45;95447.75;5135309;27;20210;-63
2021/11/27 02:29:28;;;;;;;4.90;3.60;;;;;;;3.33;91.24;95438.41;5141106;27;20224;-63
2021/11/27 02:31:57;;;;;;;3.67;2.97;;;;;;;3.28;91.96;95437.94;5141640;27;20219;-63
2021/11/27 02:34:23;;;;;;;4.43;3.43;;;;;;;3.25;92.38;95430.38;5129268;27;20235;-63
2021/11/27 02:36:53;;;;;;;6.03;3.80;;;;;;;3.30;92.74;95436.06;5140436;27;20212;-63
2021/11/27 02:39:23;;;;;;;3.83;3.20;;;;;;;3.38;92.14;95431.03;5141810;27;20703;-63
2021/11/27 02:41:53;;;;;;;3.60;2.97;;;;;;;3.43;92.29;95429.66;5140825;27;20588;-63
2021/11/27 02:44:20;;;;;;;5.23;3.23;;;;;;;3.42;92.12;95428.00;5139756;27;20242;-64
2021/11/27 02:46:46;;;;;;;3.93;2.90;;;;;;;3.45;92.61;95425.16;5140182;27;20211;-63
2021/11/27 02:49:13;;;;;;;4.70;3.30;;;;;;;3.49;92.79;95420.50;5141960;27;20217;-63
2021/11/27 02:51:40;;;;;;;3.33;3.00;;;;;;;3.48;92.45;95417.06;5140139;27;20214;-63
2021/11/27 02:54:06;;;;;;;3.53;3.20;;;;;;;3.51;92.03;95416.81;5138279;27;20219;-63
2021/11/27 02:56:37;;;;;;;3.93;2.87;;;;;;;3.46;92.47;95413.75;5140081;27;20215;-63
2021/11/27 02:59:12;;;;;;;3.80;2.70;;;;;;;3.46;92.96;95408.53;5141970;27;20217;-63
2021/11/27 03:01:40;;;;;;;3.83;2.90;;;;;;;3.45;93.57;95411.28;5126585;27;20217;-63
2021/11/27 03:04:06;;;;;;;4.13;2.90;;;;;;;3.42;93.77;95416.78;5138726;27;20210;-63
2021/11/27 03:06:33;;;;;;;4.17;3.10;;;;;;;3.43;94.31;95411.41;5139776;27;20209;-64
2021/11/27 03:09:00;;;;;;;3.63;3.10;;;;;;;3.40;94.38;95414.28;5142290;27;20217;-64
2021/11/27 03:11:28;;;;;;;3.93;3.47;;;;;;;3.44;94.22;95425.28;5126345;27;20210;-64
2021/11/27 03:13:56;;;;;;;4.20;3.20;;;;;;;3.42;94.00;95417.56;5139338;27;20587;-64
2021/11/27 03:16:25;;;;;;;4.50;3.30;;;;;;;3.33;94.30;95415.75;5139521;27;20205;-64
2021/11/27 03:18:52;;;;;;;4.43;3.07;;;;;;;3.36;94.45;95407.66;5140609;27;20205;-64
2021/11/27 03:21:19;;;;;;;4.00;3.17;;;;;;;3.37;94.64;95406.69;5139188;27;20253;-64
2021/11/27 03:23:46;;;;;;;4.00;3.00;;;;;;;3.40;94.55;95403.84;5139207;27;20250;-64
2021/11/27 03:26:12;;;;;;;3.70;2.67;;;;;;;3.41;94.81;95410.72;5139416;27;20221;-64
2021/11/27 03:28:39;;;;;;;3.43;2.53;;;;;;;3.38;94.75;95407.53;5142224;27;20217;-64
2021/11/27 03:31:07;;;;;;;3.73;2.80;;;;;;;3.38;94.27;95410.97;5138971;27;20218;-64
2021/11/27 03:33:33;;;;;;;3.83;2.70;;;;;;;3.35;95.07;95415.59;5139076;27;20210;-64
2021/11/27 03:36:00;;;;;;;4.93;3.40;;;;;;;3.43;94.51;95411.41;5139117;27;20240;-64
2021/11/27 03:38:27;;;;;;;4.80;3.30;;;;;;;3.42;94.35;95412.34;5141316;27;20210;-64
2021/11/27 03:40:54;;;;;;;3.60;2.90;;;;;;;3.52;94.14;95417.63;5139114;27;20242;-63
2021/11/27 03:43:21;;;;;;;3.37;2.90;;;;;;;3.56;93.67;95414.63;5139029;27;20211;-64
2021/11/27 03:45:47;;;;;;;3.30;2.93;;;;;;;3.59;93.31;95411.78;5137509;27;20604;-64
2021/11/27 03:48:18;;;;;;;4.33;3.00;;;;;;;3.56;93.59;95425.06;5131822;27;20207;-64
2021/11/27 03:50:49;;;;;;;3.70;3.10;;;;;;;3.46;94.33;95416.38;5138827;27;20225;-64
2021/11/27 03:53:18;;;;;;;4.20;3.00;;;;;;;3.37;95.62;95424.16;5138803;27;20212;-63
2021/11/27 03:55:46;;;;;;;3.37;3.00;;;;;;;3.33;97.29;95418.38;5138952;27;20242;-63
2021/11/27 03:58:12;;;;;;;4.10;3.10;;;;;;;3.23;97.53;95422.69;5141519;27;20205;-64
2021/11/27 04:00:40;;;;;;;3.63;3.03;;;;;;;3.20;99.02;95417.72;5138726;27;20233;-64
2021/11/27 04:03:08;;;;;;;4.10;3.10;;;;;;;3.20;99.55;95420.34;5138364;27;20210;-64
2021/11/27 04:05:42;;;;;;;4.43;3.27;;;;;;;3.19;99.76;95420.47;5135815;27;20212;-64
2021/11/27 04:08:09;;;;;;;4.93;3.33;;;;;;;3.16;100.00;95421.53;5136012;27;20210;-64
2021/11/27 04:10:35;;;;;;;3.93;2.83;;;;;;;3.10;100.00;95422.06;5138257;27;20297;-64
2021/11/27 04:13:02;;;;;;;3.37;3.07;;;;;;;3.11;100.00;95421.09;5136830;27;20591;-64
2021/11/27 04:15:29;;;;;;;3.90;3.00;;;;;;;3.11;100.00;95421.09;5138182;27;20667;-64
2021/11/27 04:17:55;;;;;;;3.70;2.90;;;;;;;3.13;100.00;95419.16;5140908;27;20219;-64
2021/11/27 04:20:22;;;;;;;3.80;3.27;;;;;;;3.14;100.00;95420.84;5137936;27;20243;-64
2021/11/27 04:22:50;;;;;;;3.10;2.73;;;;;;;3.16;100.00;95416.31;5137923;27;20209;-64
2021/11/27 04:25:17;;;;;;;3.57;2.90;;;;;;;3.16;100.00;95416.31;5138269;27;20213;-63
2021/11/27 04:27:44;;;;;;;3.80;2.57;;;;;;;3.22;100.00;95415.81;5140635;27;20675;-64
2021/11/27 04:30:14;;;;;;;3.93;2.80;;;;;;;3.26;100.00;95422.44;5137841;27;20677;-64
2021/11/27 04:32:41;;;;;;;3.27;2.53;;;;;;;3.29;100.00;95426.56;5137804;27;20706;-64
2021/11/27 04:35:09;;;;;;;3.10;2.43;;;;;;;3.30;100.00;95418.59;5137995;27;20214;-64
2021/11/27 04:37:35;;;;;;;2.90;2.30;;;;;;;3.30;100.00;95428.22;5139314;27;20209;-64
2021/11/27 04:40:05;;;;;;;4.13;2.80;;;;;;;3.33;100.00;95423.59;5137297;27;20239;-64
2021/11/27 04:42:32;;;;;;;3.13;2.57;;;;;;;3.35;100.00;95436.47;5137589;27;20690;-64
2021/11/27 04:44:58;;;;;;;3.07;2.47;;;;;;;3.39;99.84;95428.28;5137652;27;20334;-65
2021/11/27 04:47:25;;;;;;;3.00;2.40;;;;;;;3.45;99.69;95427.78;5140323;27;20224;-64
2021/11/27 04:49:52;;;;;;;3.03;2.30;;;;;;;3.50;99.26;95425.63;5136846;27;20708;-64
2021/11/27 04:52:20;;;;;;;3.10;2.60;;;;;;;3.52;99.28;95436.75;5137533;27;20213;-64
2021/11/27 04:54:47;;;;;;;2.30;2.10;;;;;;;3.57;98.68;95437.19;5137729;27;20279;-64
2021/11/27 04:57:15;;;;;;;2.20;2.00;;;;;;;3.51;99.42;95432.47;5140450;27;20210;-64
2021/11/27 04:59:41;;;;;;;3.03;2.13;;;;;;;3.52;99.55;95433.28;5137670;27;20216;-64
2021/11/27 05:02:08;;;;;;;2.87;2.57;;;;;;;3.61;98.91;95433.34;5135300;27;20293;-64
2021/11/27 05:04:35;;;;;;;2.13;1.93;;;;;;;3.62;99.13;95435.00;5130460;27;20209;-63
2021/11/27 05:07:01;;;;;;;3.10;1.83;;;;;;;3.60;99.31;95441.31;5139873;27;20218;-64
2021/11/27 05:09:28;;;;;;;2.13;1.90;;;;;;;3.59;99.63;95430.03;5137309;27;20220;-64
2021/11/27 05:11:54;;;;;;;2.47;1.70;;;;;;;3.63;99.20;95438.44;5137274;27;20229;-64
2021/11/27 05:14:22;;;;;;;1.90;1.50;;;;;;;3.62;99.38;95437.59;5137159;27;20236;-64
2021/11/27 05:16:49;;;;;;;1.70;1.57;;;;;;;3.58;100.00;95433.63;5140042;27;20222;-65
2021/11/27 05:19:16;;;;;;;2.00;1.80;;;;;;;3.58;99.94;95433.63;5123699;27;20210;-64
2021/11/27 05:21:43;;;;;;;2.50;1.53;;;;;;;3.55;100.00;95433.84;5137284;27;20326;-64
2021/11/27 05:24:10;;;;;;;1.53;1.40;;;;;;;3.53;100.00;95438.41;5137258;27;20221;-64
2021/11/27 05:26:37;;;;;;;2.57;1.47;;;;;;;3.46;100.00;95439.88;5139754;27;20205;-64
2021/11/27 05:29:04;;;;;;;2.13;1.70;;;;;;;3.51;100.00;95435.09;5136933;27;20229;-64
2021/11/27 05:31:32;;;;;;;1.63;1.53;;;;;;;3.45;100.00;95437.38;5135051;27;20228;-64
2021/11/27 05:34:21;;;;;;;1.50;1.30;;;;;;;3.40;100.00;95448.22;5137458;27;20214;-64
2021/11/27 05:36:48;;;;;;;1.33;1.23;;;;;;;3.39;100.00;95454.38;5135902;27;20638;-64
2021/11/27 05:39:14;;;;;;;1.53;1.43;;;;;;;3.43;100.00;95453.16;5136863;27;20217;-64
2021/11/27 05:41:41;;;;;;;1.70;1.23;;;;;;;3.44;100.00;95448.78;5136939;27;20233;-64
2021/11/27 05:44:08;;;;;;;1.53;1.20;;;;;;;3.46;100.00;95445.09;5137830;27;20326;-64
2021/11/27 05:46:36;;;;;;;1.70;1.27;;;;;;;3.40;100.00;95455.19;5138531;27;20220;-64
2021/11/27 05:49:02;;;;;;;1.20;1.07;;;;;;;3.43;100.00;95457.56;5136799;27;20214;-64
2021/11/27 05:51:29;;;;;;;1.50;1.40;;;;;;;3.42;100.00;95458.53;5136782;27;20211;-64
2021/11/27 05:53:55;;;;;;;1.43;1.07;;;;;;;3.42;100.00;95464.56;5137488;27;20211;-64
2021/11/27 05:56:22;;;;;;;1.50;1.40;;;;;;;3.41;100.00;95462.91;5136835;27;20213;-64
2021/11/27 05:58:49;;;;;;;1.47;1.23;;;;;;;3.38;100.00;95462.34;5136628;27;20210;-64
2021/11/27 06:01:15;;;;;;;1.70;1.10;;;;;;;3.42;100.00;95458.53;5137806;27;20706;-64
2021/11/27 06:03:43;;;;;;;1.13;1.03;;;;;;;3.42;100.00;95459.34;5140945;27;20206;-64
2021/11/27 06:06:10;;;;;;;1.20;1.10;;;;;;;3.49;100.00;95460.47;5140986;27;20213;-65
2021/11/27 06:08:36;;;;;;;1.53;1.10;;;;;;;3.49;100.00;95457.88;5140731;27;20696;-64
2021/11/27 06:11:03;;;;;;;1.63;1.10;;;;;;;3.53;100.00;95454.06;5141238;27;20580;-64
2021/11/27 06:13:29;;;;;;;1.00;0.90;;;;;;;3.54;100.00;95468.75;5140833;27;20292;-64
2021/11/27 06:15:56;;;;;;;1.10;1.10;;;;;;;3.55;100.00;95459.16;5138007;27;20208;-64
2021/11/27 06:18:22;;;;;;;1.33;1.23;;;;;;;3.55;100.00;95470.41;5135548;27;20218;-64
2021/11/27 06:20:50;;;;;;;1.67;1.20;;;;;;;3.57;100.00;95458.06;5140209;27;20781;-64
2021/11/27 06:23:17;;;;;;;1.23;1.13;;;;;;;3.60;100.00;95460.41;5138928;27;20211;-64
2021/11/27 06:25:43;;;;;;;1.30;1.20;;;;;;;3.62;100.00;95460.28;5142922;27;20220;-64
2021/11/27 06:28:10;;;;;;;1.50;1.20;;;;;;;3.64;100.00;95467.03;5140456;27;20214;-64
2021/11/27 06:30:40;;;;;;;1.60;1.20;;;;;;;3.64;100.00;95471.44;5140197;27;20220;-64
2021/11/27 06:33:06;;;;;;;1.77;1.10;;;;;;;3.65;100.00;95471.31;5140046;27;20217;-64
2021/11/27 06:35:33;;;;;;;1.53;1.20;;;;;;;3.60;100.00;95478.69;5143122;27;20210;-64
2021/11/27 06:38:01;;;;;;;1.27;1.03;;;;;;;3.59;100.00;95476.19;5140382;27;20214;-64
2021/11/27 06:40:28;;;;;;;1.43;1.33;;;;;;;3.56;100.00;95477.28;5140177;27;20229;-64
2021/11/27 06:42:55;;;;;;;1.20;1.00;;;;;;;3.54;100.00;95473.19;5140323;27;20580;-64
2021/11/27 06:45:23;;;;;;;1.20;1.10;;;;;;;3.50;100.00;95467.38;5143038;27;20248;-64
2021/11/27 06:47:49;;;;;;;1.43;1.23;;;;;;;3.47;100.00;95472.84;5140244;27;20213;-64
2021/11/27 06:50:17;;;;;;;1.30;1.20;;;;;;;3.43;100.00;95478.47;5137894;27;20210;-64
2021/11/27 06:52:43;;;;;;;1.00;1.00;;;;;;;3.36;100.00;95480.72;5139847;27;20211;-64
2021/11/27 06:55:12;;;;;;;1.20;1.10;;;;;;;3.36;100.00;95488.56;5142552;27;20206;-63
2021/11/27 06:57:38;;;;;;;1.80;1.30;;;;;;;3.31;100.00;95498.53;5126274;27;20658;-64
2021/11/27 07:00:07;;;;;;;1.30;1.20;;;;;;;3.30;100.00;95490.88;5139693;27;20294;-63
2021/11/27 07:02:34;;;;;;;1.23;1.13;;;;;;;3.32;100.00;95495.00;5139644;27;20610;-64
2021/11/27 07:05:00;;;;;;;1.20;1.10;;;;;;;3.33;100.00;95491.44;5141953;27;20211;-64
2021/11/27 07:07:27;;;;;;;0.87;0.87;;;;;;;3.35;100.00;95499.97;5125797;27;20676;-63
2021/11/27 07:09:54;;;;;;;1.17;1.10;;;;;;;3.38;100.00;95502.34;5139708;27;20206;-64
2021/11/27 07:12:22;;;;;;;1.33;1.20;;;;;;;3.39;100.00;95501.38;5138943;27;20228;-64
2021/11/27 07:14:49;;;;;;;1.60;1.07;;;;;;;3.44;100.00;95514.88;5141351;27;20580;-64
2021/11/27 07:17:16;;;;;;;1.10;1.00;;;;;;;3.45;100.00;95520.91;5138914;27;20211;-64
2021/11/27 07:19:42;;;;;;;1.30;1.20;;;;;;;3.44;100.00;95520.09;5139450;27;20209;-64
2021/11/27 07:22:09;;;;;;;1.10;1.00;;;;;;;3.33;100.00;95527.97;5139301;27;20239;-64
2021/11/27 07:24:36;;;;;;;1.30;1.20;;;;;;;3.27;100.00;95531.09;5141585;27;20215;-64
2021/11/27 07:27:06;;;;;;;1.13;1.10;;;;;;;3.32;100.00;95536.78;5139194;27;20294;-64
2021/11/27 07:29:35;;;;;;;0.90;0.90;;;;;;;3.45;100.00;95537.41;5138538;27;20210;-64
2021/11/27 07:32:02;;;;;;;1.53;1.20;;;;;;;3.51;100.00;95546.50;5124793;27;20210;-64
2021/11/27 07:34:28;;;;;;;1.10;1.00;;;;;;;3.60;100.00;95549.19;5132431;27;20746;-63
2021/11/27 07:36:55;;;;;;;0.93;0.93;;;;;;;3.58;100.00;95553.72;5119803;27;20675;-64
2021/11/27 07:39:21;;;;;;;1.37;1.17;;;;;;;3.53;100.00;95561.09;5136072;27;20288;-63
2021/11/27 07:41:48;;;;;;;1.53;1.30;;;;;;;3.44;100.00;95561.03;5134497;27;20237;-64
2021/11/27 07:44:14;;;;;;;1.40;1.20;;;;;;;3.43;100.00;95560.19;5135801;27;20241;-64
2021/11/27 07:46:43;;;;;;;1.90;1.20;;;;;;;3.46;100.00;95572.16;5135851;27;20672;-64
2021/11/27 07:49:10;;;;;;;1.77;1.20;;;;;;;3.45;100.00;95578.34;5136263;27;20213;-64
2021/11/27 07:51:36;;;;;;;1.43;1.13;;;;;;;3.38;100.00;95578.03;5136058;27;20227;-64
2021/11/27 07:54:03;;;;;;;1.40;1.20;;;;;;;3.28;100.00;95577.09;5136086;27;20217;-64
2021/11/27 07:56:30;;;;;;;1.23;1.13;;;;;;;3.26;100.00;95579.03;5135974;27;20360;-64
2021/11/27 07:58:57;;;;;;;1.30;1.20;;;;;;;3.19;100.00;95577.84;5135955;27;20237;-64
2021/11/27 08:01:23;;;;;;;1.73;1.50;;;;;;;3.10;100.00;95582.97;5135573;27;20328;-64
2021/11/27 08:03:51;;;;;;;1.40;1.10;;;;;;;3.05;100.00;95585.13;5135491;27;20208;-63
2021/11/27 08:06:18;;;;;;;1.53;1.27;;;;;;;2.95;100.00;95595.44;5135752;27;20588;-64
2021/11/27 08:08:44;;;;;;;1.93;1.30;;;;;;;2.90;100.00;95597.63;5134187;27;20214;-64
2021/11/27 08:11:11;;;;;;;1.60;1.10;;;;;;;2.81;100.00;95598.31;5135366;27;20681;-63
2021/11/27 08:13:37;;;;;;;1.40;1.30;;;;;;;2.78;100.00;95597.75;5135491;27;20224;-64
2021/11/27 08:16:05;;;;;;;1.50;1.30;;;;;;;2.78;100.00;95592.53;5135371;27;20594;-64
2021/11/27 08:18:31;;;;;;;1.80;1.40;;;;;;;2.83;100.00;95593.84;5132353;27;20258;-63
2021/11/27 08:21:00;;;;;;;1.73;1.63;;;;;;;2.85;100.00;95594.53;5134004;27;20236;-64
2021/11/27 08:23:27;;;;;;;1.73;1.60;;;;;;;2.91;100.00;95599.28;5134292;27;20211;-65
2021/11/27 08:25:53;;;;;;;2.60;1.80;;;;;;;2.98;100.00;95599.59;5133493;27;20263;-64
2021/11/27 08:28:20;;;;;;;2.30;1.67;;;;;;;3.18;100.00;95602.28;5135483;27;20576;-64
2021/11/27 08:30:46;;;;;;;2.27;1.83;;;;;;;3.41;100.00;95609.09;5135386;27;20230;-65
2021/11/27 08:33:13;;;;;;;2.03;1.63;;;;;;;3.70;100.00;95606.72;5135207;27;20216;-64
2021/11/27 08:35:39;;;;;;;2.33;1.73;;;;;;;3.97;100.00;95617.53;5133456;27;20579;-64
2021/11/27 08:38:07;;;;;;;1.63;1.53;;;;;;;4.17;100.00;95619.28;5134914;27;20216;-64
2021/11/27 08:40:34;;;;;;;1.63;1.53;;;;;;;4.35;100.00;95622.97;5135096;27;20209;-64
2021/11/27 08:43:01;;;;;;;1.40;1.30;;;;;;;4.50;100.00;95625.13;5134709;27;20242;-64
2021/11/27 08:45:28;;;;;;;2.10;1.60;;;;;;;4.62;100.00;95616.22;5134990;27;20593;-64
2021/11/27 08:47:55;;;;;;;1.47;1.30;;;;;;;4.74;100.00;95620.41;5120471;27;20212;-64
2021/11/27 08:50:21;;;;;;;1.60;1.20;;;;;;;4.81;100.00;95615.47;5134630;27;20670;-64
2021/11/27 08:52:49;;;;;;;1.60;1.40;;;;;;;4.88;100.00;95619.25;5134858;27;20216;-64
2021/11/27 08:55:17;;;;;;;1.30;1.20;;;;;;;4.96;100.00;95617.59;5134872;27;20213;-64
2021/11/27 08:57:44;;;;;;;1.60;1.37;;;;;;;5.03;100.00;95621.34;5134548;27;20214;-64
2021/11/27 09:00:12;;;;;;;1.50;1.20;;;;;;;5.13;100.00;95618.75;5134247;27;20211;-64
2021/11/27 09:02:39;;;;;;;0.93;0.90;;;;;;;5.21;99.15;95624.97;5133712;27;20331;-64
2021/11/27 09:05:06;;;;;;;1.30;1.13;;;;;;;5.31;99.25;95617.94;5134488;27;20241;-64
2021/11/27 09:07:33;;;;;;;2.40;1.03;;;;;;;5.42;98.42;95638.78;5134699;27;20234;-64
2021/11/27 09:09:59;;;;;;;1.30;1.20;;;;;;;5.48;98.04;95630.41;5134612;27;20299;-64
2021/11/27 09:12:28;;;;;;;2.13;1.30;;;;;;;5.55;94.52;95628.88;5134276;27;20219;-64
2021/11/27 09:14:55;;;;;;;1.80;1.10;;;;;;;5.51;93.78;95637.97;5134209;27;20224;-64
2021/11/27 09:17:22;;;;;;;1.53;0.90;;;;;;;5.52;94.73;95646.66;5134486;27;20212;-64
2021/11/27 09:19:48;;;;;;;1.00;0.97;;;;;;;5.35;93.69;95652.56;5134440;27;20223;-64
2021/11/27 09:22:15;;;;;;;1.30;0.93;;;;;;;5.35;93.32;95648.16;5134374;27;20356;-64
2021/11/27 09:24:42;;;;;;;1.27;0.90;;;;;;;5.37;93.93;95651.47;5134004;27;20213;-64
2021/11/27 09:27:09;;;;;;;1.47;1.00;;;;;;;5.38;93.50;95647.88;5132433;27;20226;-64
2021/11/27 09:29:39;;;;;;;1.40;1.20;;;;;;;5.39;94.43;95646.94;5134182;27;20223;-64
2021/11/27 09:32:06;;;;;;;1.60;1.17;;;;;;;5.42;94.48;95649.28;5134065;27;20223;-64
2021/11/27 09:34:33;;;;;;;1.20;1.10;;;;;;;5.45;94.88;95658.66;5134147;27;20252;-64
2021/11/27 09:37:01;;;;;;;1.33;1.23;;;;;;;5.41;94.57;95652.00;5133858;27;20210;-64
2021/11/27 09:39:28;;;;;;;1.27;1.03;;;;;;;5.44;94.01;95657.81;5134130;27;20211;-64
2021/11/27 09:41:58;;;;;;;1.13;1.03;;;;;;;5.48;94.97;95659.22;5134069;27;20285;-64
2021/11/27 09:44:24;;;;;;;2.30;1.20;;;;;;;5.52;95.79;95663.22;5134036;27;20243;-64
2021/11/27 09:46:57;;;;;;;1.33;1.07;;;;;;;5.54;95.95;95666.53;5134163;27;20231;-64
2021/11/27 09:49:23;;;;;;;0.93;0.93;;;;;;;5.48;96.10;95664.44;5133916;27;20216;-62
2021/11/27 09:51:53;;;;;;;1.43;1.00;;;;;;;5.43;96.58;95660.59;5133997;28;20215;-66
2021/11/27 09:54:22;;;;;;;1.50;1.10;;;;;;;5.35;97.46;95658.63;5132224;28;20295;-63
2021/11/27 09:56:50;;;;;;;1.40;1.30;;;;;;;5.33;98.80;95644.00;5133647;28;20272;-62
2021/11/27 09:59:17;;;;;;;1.80;1.30;;;;;;;5.39;100.00;95649.56;5133582;28;20215;-65
2021/11/27 10:01:45;;;;;;;1.33;1.13;;;;;;;5.44;100.00;95647.34;5133541;28;20721;-62
2021/11/27 10:04:14;;;;;;;1.93;1.20;;;;;;;5.47;100.00;95647.06;5132945;28;20211;-62
2021/11/27 10:06:44;;;;;;;1.40;1.20;;;;;;;5.41;100.00;95639.75;5133535;28;20212;-63
2021/11/27 10:09:12;;;;;;;2.13;1.13;;;;;;;5.32;100.00;95637.13;5133432;28;20690;-63
2021/11/27 10:11:41;;;;;;;1.60;1.30;;;;;;;5.22;100.00;95639.72;5133736;28;20212;-63
2021/11/27 10:14:08;;;;;;;1.43;1.20;;;;;;;5.28;100.00;95636.56;5133348;28;20218;-63
2021/11/27 10:17:06;;;;;;;1.50;1.03;;;;;;;5.34;100.00;95636.03;5133843;28;20215;-62
2021/11/27 10:19:57;;;;;;;2.40;1.27;;;;;;;5.46;100.00;95641.97;5132344;28;20216;-63
2021/11/27 10:22:27;;;;;;;1.30;0.77;;;;;;;5.65;99.59;95634.13;5133736;28;20276;-62
2021/11/27 10:24:55;;;;;;;0.70;0.70;;;;;;;5.69;94.72;95638.16;5133809;28;20223;-63
2021/11/27 10:27:24;;;;;;;1.20;1.00;;;;;;;5.79;95.58;95641.56;5133735;28;20258;-63
2021/11/27 10:30:03;;;;;;;1.53;1.00;;;;;;;5.88;95.06;95646.88;5133284;28;20292;-63
2021/11/27 10:32:33;;;;;;;2.63;0.80;;;;;;;6.10;93.73;95640.53;5133622;28;20222;-64
2021/11/27 10:35:01;;;;;;;2.60;1.13;;;;;;;6.26;93.67;95639.00;5133187;28;20216;-63
2021/11/27 10:37:30;;;;;;;1.87;1.30;;;;;;;6.30;90.99;95642.16;5133230;28;20736;-64
2021/11/27 10:40:00;;;;;;;2.53;1.10;;;;;;;6.26;88.33;95641.59;5132781;28;20607;-63
2021/11/27 10:42:26;;;;;;;2.83;1.30;;;;;;;6.37;88.14;95646.69;5132536;28;20243;-63
2021/11/27 10:44:53;;;;;;;1.33;1.20;;;;;;;6.52;88.00;95654.94;5132863;28;20244;-64
2021/11/27 10:50:29;;;;;;;1.63;1.00;;;;;;;6.41;86.63;95665.63;5134943;27;20281;-64
2021/11/27 10:52:55;;;;;;;1.10;0.90;;;;;;;6.37;86.88;95659.81;5131485;27;20277;-64
2021/11/27 10:55:24;;;;;;;2.70;1.20;;;;;;;6.38;86.79;95658.84;5134939;27;20224;-64
2021/11/27 10:57:55;;;;;;;1.70;1.00;;;;;;;6.39;86.61;95663.13;5133656;27;20209;-64
2021/11/27 11:00:31;;;;;;;1.60;1.00;;;;;;;6.31;85.26;95655.13;5135150;27;20280;-63
2021/11/27 11:02:59;;;;;;;0.80;0.80;;;;;;;6.28;84.67;95668.50;5135082;27;20243;-64
2021/11/27 11:05:35;;;;;;;1.37;1.10;;;;;;;6.28;85.83;95665.06;5133599;27;20685;-64
2021/11/27 11:08:03;;;;;;;1.13;1.00;;;;;;;6.28;85.62;95673.75;5120291;27;20262;-63
2021/11/27 11:10:32;;;;;;;3.20;1.10;;;;;;;6.29;85.90;95677.22;5134754;27;20212;-63
2021/11/27 11:13:01;;;;;;;2.37;1.20;;;;;;;6.28;85.62;95686.06;5133484;27;20221;-64
2021/11/27 11:15:30;;;;;;;1.47;1.00;;;;;;;6.33;85.80;95674.16;5135520;27;20299;-65
2021/11/27 11:18:13;;;;;;;1.00;0.80;;;;;;;6.32;85.13;95672.53;5135412;27;20215;-66
2021/11/27 11:20:45;;;;;;;1.73;1.10;;;;;;;6.37;84.56;95664.22;5131069;27;20214;-65
2021/11/27 11:23:15;;;;;;;0.90;0.90;;;;;;;6.27;84.57;95668.66;5133322;27;20252;-64
2021/11/27 11:25:54;;;;;;;1.10;1.00;;;;;;;6.28;84.80;95665.88;5135025;27;20221;-64
2021/11/27 11:28:23;;;;;;;2.00;0.90;;;;;;;6.27;83.89;95674.72;5129509;27;20217;-64
2021/11/27 11:30:52;;;;;;;1.27;0.97;;;;;;;6.34;83.88;95675.00;5135176;27;20227;-64
2021/11/27 11:33:20;;;;;;;1.10;0.90;;;;;;;6.25;83.84;95676.69;5127619;27;20209;-64
2021/11/27 11:35:50;;;;;;;1.37;0.90;;;;;;;6.15;83.19;95677.63;5134624;27;20217;-64
2021/11/27 11:38:18;;;;;;;1.30;0.90;;;;;;;6.17;84.07;95680.94;5135219;27;20218;-64
2021/11/27 11:40:46;;;;;;;1.50;0.73;;;;;;;6.14;83.46;95679.44;5132889;27;20221;-64
2021/11/27 11:43:13;;;;;;;1.33;0.70;;;;;;;6.19;83.40;95686.88;5134711;27;20239;-64
2021/11/27 11:45:40;;;;;;;2.33;1.00;;;;;;;6.22;84.50;95690.03;5134877;27;20247;-64